Time;durP1;ratioP1;P1;durP2;ratioP2;P2;SDS_P1;SDS_P2;PMS_P1;PMS_P2;Temp;Humidity;BMP_temperature;BMP_pressure;BME280_temperature;BME280_humidity;BME280_pressure;Samples;Min_cycle;Max_cycle;Signal;HPM_P1;HPM_P2
2022/04/09 00:00:30;;;;;;;6.75;2.90;;;;;;;;;;5008558;28;20046;-71
2022/04/09 00:02:56;;;;;;;10.45;2.70;;;;;;;;;;5009929;28;20046;-71
2022/04/09 00:05:21;;;;;;;11.45;2.97;;;;;;;;;;5008914;28;20384;-71
2022/04/09 00:07:47;;;;;;;7.13;2.75;;;;;;;;;;5010271;28;20124;-71
2022/04/09 00:10:13;;;;;;;5.70;2.80;;;;;;;;;;5008000;28;20041;-71
2022/04/09 00:12:39;;;;;;;5.85;2.50;;;;;;;;;;5010172;28;20042;-71
2022/04/09 00:15:05;;;;;;;8.27;3.05;;;;;;;;;;5008404;28;20046;-71
2022/04/09 00:17:38;;;;;;;8.48;3.15;;;;;;;;;;5003635;28;20113;-71
2022/04/09 00:20:05;;;;;;;10.52;3.33;;;;;;;;;;4999582;28;20033;-71
2022/04/09 00:22:31;;;;;;;11.48;3.00;;;;;;;;;;5009984;28;20044;-72
2022/04/09 00:24:56;;;;;;;10.18;2.75;;;;;;;;;;5011787;28;20053;-71
2022/04/09 00:27:22;;;;;;;6.97;3.00;;;;;;;;;;5001783;28;20532;-71
2022/04/09 00:29:47;;;;;;;6.72;2.63;;;;;;;;;;5003610;28;20049;-71
2022/04/09 00:32:12;;;;;;;9.85;3.28;;;;;;;;;;5009709;28;20535;-72
2022/04/09 00:34:38;;;;;;;8.65;3.08;;;;;;;;;;5008485;28;20033;-71
2022/04/09 00:37:03;;;;;;;6.80;2.55;;;;;;;;;;5008989;28;20045;-71
2022/04/09 00:39:28;;;;;;;4.35;2.38;;;;;;;;;;5010233;28;20034;-71
2022/04/09 00:41:54;;;;;;;8.55;2.75;;;;;;;;;;5005580;28;20050;-71
2022/04/09 00:44:20;;;;;;;7.32;2.53;;;;;;;;;;5011823;28;20030;-71
2022/04/09 00:46:46;;;;;;;11.68;2.95;;;;;;;;;;5007165;28;20042;-71
2022/04/09 00:49:13;;;;;;;5.95;2.88;;;;;;;;;;5009826;28;20042;-72
2022/04/09 00:51:43;;;;;;;8.68;2.70;;;;;;;;;;5007528;28;20455;-72
2022/04/09 00:54:11;;;;;;;8.82;2.88;;;;;;;;;;5009659;28;20040;-72
2022/04/09 00:56:38;;;;;;;10.63;3.30;;;;;;;;;;5007277;28;20040;-72
2022/04/09 00:59:06;;;;;;;5.20;2.80;;;;;;;;;;5008892;28;20045;-72
2022/04/09 01:01:35;;;;;;;4.85;2.47;;;;;;;;;;5006881;28;20594;-72
2022/04/09 01:04:06;;;;;;;8.88;3.03;;;;;;;;;;5011035;28;20480;-72
2022/04/09 01:06:33;;;;;;;8.00;3.10;;;;;;;;;;5013801;28;20100;-72
2022/04/09 01:08:58;;;;;;;5.60;2.55;;;;;;;;;;5009526;28;20062;-72
2022/04/09 01:11:24;;;;;;;9.40;3.00;;;;;;;;;;5007672;28;20057;-72
2022/04/09 01:13:49;;;;;;;8.90;3.00;;;;;;;;;;5002286;28;20057;-72
2022/04/09 01:16:15;;;;;;;10.70;3.75;;;;;;;;;;4997385;28;20045;-72
2022/04/09 01:18:41;;;;;;;6.18;2.90;;;;;;;;;;5008685;28;20519;-72
2022/04/09 01:21:06;;;;;;;6.20;3.38;;;;;;;;;;5007268;28;20049;-72
2022/04/09 01:23:33;;;;;;;11.35;3.33;;;;;;;;;;5011987;28;20072;-72
2022/04/09 01:25:59;;;;;;;13.60;3.25;;;;;;;;;;5007752;28;20535;-72
2022/04/09 01:28:26;;;;;;;7.53;3.15;;;;;;;;;;5007761;28;20037;-72
2022/04/09 01:30:52;;;;;;;8.75;3.33;;;;;;;;;;5007457;28;20153;-72
2022/04/09 01:33:18;;;;;;;10.38;4.20;;;;;;;;;;5007830;28;20040;-72
2022/04/09 01:35:44;;;;;;;12.95;5.30;;;;;;;;;;5008165;28;20046;-72
2022/04/09 01:38:10;;;;;;;13.77;5.40;;;;;;;;;;5007161;28;20022;-72
2022/04/09 01:40:36;;;;;;;19.30;5.78;;;;;;;;;;5007899;28;20036;-72
2022/04/09 01:43:01;;;;;;;14.50;6.03;;;;;;;;;;5010947;28;20136;-72
2022/04/09 01:45:29;;;;;;;13.30;5.88;;;;;;;;;;5008775;28;20037;-72
2022/04/09 01:47:55;;;;;;;16.83;6.15;;;;;;;;;;5006415;28;20096;-71
2022/04/09 01:50:26;;;;;;;13.68;4.95;;;;;;;;;;5008771;28;20439;-71
2022/04/09 01:52:52;;;;;;;13.82;5.10;;;;;;;;;;5006525;28;20125;-71
2022/04/09 01:55:17;;;;;;;16.05;5.15;;;;;;;;;;4993312;28;20130;-72
2022/04/09 01:57:42;;;;;;;15.23;5.40;;;;;;;;;;4986739;28;20117;-71
2022/04/09 02:00:10;;;;;;;11.80;4.07;;;;;;;;;;4988614;28;20121;-73
2022/04/09 02:02:36;;;;;;;12.25;4.65;;;;;;;;;;4986525;28;20047;-71
2022/04/09 02:05:02;;;;;;;12.27;5.22;;;;;;;;;;4997477;28;20029;-72
2022/04/09 02:07:28;;;;;;;11.35;5.45;;;;;;;;;;4986784;28;20030;-72
2022/04/09 02:09:54;;;;;;;16.10;4.65;;;;;;;;;;4987801;28;20042;-71
2022/04/09 02:12:19;;;;;;;9.85;4.47;;;;;;;;;;4986871;28;20423;-71
2022/04/09 02:14:45;;;;;;;9.73;4.00;;;;;;;;;;4987615;28;20049;-72
2022/04/09 02:17:11;;;;;;;13.20;5.22;;;;;;;;;;4987483;28;20032;-72
2022/04/09 02:19:38;;;;;;;16.42;4.72;;;;;;;;;;4987902;28;20030;-72
2022/04/09 02:22:03;;;;;;;13.52;4.65;;;;;;;;;;4986894;28;20041;-71
2022/04/09 02:24:29;;;;;;;10.60;4.28;;;;;;;;;;4987815;28;20040;-72
2022/04/09 02:26:54;;;;;;;9.77;4.45;;;;;;;;;;4984834;28;20046;-72
2022/04/09 02:29:20;;;;;;;15.90;5.35;;;;;;;;;;4987303;28;20030;-72
2022/04/09 02:31:45;;;;;;;12.15;5.15;;;;;;;;;;4987801;28;20038;-71
2022/04/09 02:34:10;;;;;;;18.85;5.97;;;;;;;;;;4985382;28;20041;-72
2022/04/09 02:36:36;;;;;;;13.35;5.20;;;;;;;;;;4987621;28;20053;-72
2022/04/09 02:39:02;;;;;;;14.88;5.50;;;;;;;;;;4991460;28;20042;-72
2022/04/09 02:41:29;;;;;;;15.40;5.03;;;;;;;;;;5007082;28;20120;-72
2022/04/09 02:43:54;;;;;;;12.27;5.18;;;;;;;;;;5007918;28;20026;-72
2022/04/09 02:46:21;;;;;;;15.20;5.28;;;;;;;;;;5007188;28;20038;-72
2022/04/09 02:48:46;;;;;;;13.80;5.70;;;;;;;;;;5006108;28;20034;-72
2022/04/09 02:51:12;;;;;;;15.23;5.20;;;;;;;;;;5007186;28;20041;-72
2022/04/09 02:53:38;;;;;;;10.18;4.93;;;;;;;;;;5005878;28;20038;-72
2022/04/09 02:56:04;;;;;;;12.50;4.80;;;;;;;;;;5007867;28;20033;-72
2022/04/09 02:58:29;;;;;;;20.60;5.55;;;;;;;;;;5005895;28;20073;-72
2022/04/09 03:00:54;;;;;;;12.82;5.18;;;;;;;;;;5006893;28;20041;-72
2022/04/09 03:03:20;;;;;;;19.00;5.78;;;;;;;;;;5005624;28;20069;-70
2022/04/09 03:05:45;;;;;;;16.65;5.93;;;;;;;;;;5010921;28;20536;-72
2022/04/09 03:08:10;;;;;;;17.02;5.68;;;;;;;;;;4998573;28;20056;-72
2022/04/09 03:10:36;;;;;;;19.75;4.70;;;;;;;;;;5007193;28;20550;-72
2022/04/09 03:13:04;;;;;;;10.95;4.60;;;;;;;;;;5006215;28;20515;-73
2022/04/09 03:15:29;;;;;;;13.30;5.10;;;;;;;;;;5006503;28;20065;-71
2022/04/09 03:17:54;;;;;;;14.63;4.50;;;;;;;;;;5007092;28;20033;-72
2022/04/09 03:20:20;;;;;;;13.45;5.10;;;;;;;;;;5005843;28;20121;-72
2022/04/09 03:22:46;;;;;;;12.85;4.90;;;;;;;;;;5007933;28;20042;-72
2022/04/09 03:25:11;;;;;;;9.45;4.60;;;;;;;;;;5007010;28;20042;-72
2022/04/09 03:27:37;;;;;;;13.98;4.43;;;;;;;;;;5006386;28;20046;-72
2022/04/09 03:30:03;;;;;;;13.77;4.72;;;;;;;;;;5006240;28;20045;-72
2022/04/09 03:32:28;;;;;;;18.73;4.50;;;;;;;;;;5006608;28;20029;-72
2022/04/09 03:34:54;;;;;;;10.40;4.97;;;;;;;;;;5005879;28;20022;-72
2022/04/09 03:37:19;;;;;;;12.88;4.35;;;;;;;;;;5005935;28;20507;-72
2022/04/09 03:39:44;;;;;;;11.20;4.43;;;;;;;;;;5006182;28;20519;-72
2022/04/09 03:42:10;;;;;;;11.70;4.60;;;;;;;;;;5006899;28;20041;-72
2022/04/09 03:44:35;;;;;;;13.40;4.95;;;;;;;;;;5014332;28;20030;-72
2022/04/09 03:47:02;;;;;;;11.68;5.32;;;;;;;;;;5010756;28;20030;-72
2022/04/09 03:49:32;;;;;;;12.57;5.07;;;;;;;;;;5009037;28;20038;-73
2022/04/09 03:51:57;;;;;;;13.02;5.25;;;;;;;;;;5010251;28;20034;-72
2022/04/09 03:54:23;;;;;;;15.48;5.13;;;;;;;;;;5008890;28;20034;-72
2022/04/09 03:56:49;;;;;;;16.20;5.40;;;;;;;;;;5010168;28;20038;-72
2022/04/09 03:59:15;;;;;;;13.50;5.10;;;;;;;;;;5009450;28;20033;-72
2022/04/09 04:01:43;;;;;;;14.15;5.03;;;;;;;;;;5009715;28;20046;-72
2022/04/09 04:04:10;;;;;;;14.45;4.93;;;;;;;;;;5003249;28;20570;-72
2022/04/09 04:06:36;;;;;;;20.52;5.32;;;;;;;;;;5009628;28;20053;-72
2022/04/09 04:09:01;;;;;;;13.07;5.10;;;;;;;;;;5009805;28;20045;-72
2022/04/09 04:11:27;;;;;;;18.40;5.38;;;;;;;;;;5007914;28;20034;-72
2022/04/09 04:13:52;;;;;;;12.98;5.10;;;;;;;;;;5010053;28;20476;-72
2022/04/09 04:16:17;;;;;;;12.07;4.25;;;;;;;;;;5008829;28;20045;-72
2022/04/09 04:18:43;;;;;;;12.88;5.07;;;;;;;;;;5009123;28;20046;-72
2022/04/09 04:21:09;;;;;;;11.40;4.47;;;;;;;;;;5009332;28;20034;-72
2022/04/09 04:23:35;;;;;;;13.13;4.75;;;;;;;;;;5010917;28;20116;-72
2022/04/09 04:26:01;;;;;;;8.75;4.15;;;;;;;;;;5009522;28;20479;-72
2022/04/09 04:28:26;;;;;;;15.65;4.32;;;;;;;;;;5010138;28;20044;-72
2022/04/09 04:30:52;;;;;;;12.00;3.75;;;;;;;;;;5017092;28;20034;-72
2022/04/09 04:33:17;;;;;;;12.05;4.53;;;;;;;;;;5008652;28;20069;-72
2022/04/09 04:35:42;;;;;;;12.00;4.97;;;;;;;;;;5009044;28;20065;-72
2022/04/09 04:38:08;;;;;;;13.50;4.82;;;;;;;;;;5009492;28;20030;-72
2022/04/09 04:40:33;;;;;;;14.43;4.60;;;;;;;;;;5008499;28;20042;-72
2022/04/09 04:42:58;;;;;;;13.80;4.30;;;;;;;;;;5010923;28;20092;-72
2022/04/09 04:45:24;;;;;;;12.18;4.57;;;;;;;;;;5007668;28;20058;-72
2022/04/09 04:47:49;;;;;;;12.57;4.95;;;;;;;;;;5009344;28;20852;-72
2022/04/09 04:50:17;;;;;;;14.60;5.10;;;;;;;;;;5008517;28;20379;-72
2022/04/09 04:52:42;;;;;;;11.23;4.90;;;;;;;;;;5009484;28;20040;-72
2022/04/09 04:55:09;;;;;;;14.10;4.95;;;;;;;;;;5007567;28;20045;-72
2022/04/09 04:57:46;;;;;;;16.02;5.82;;;;;;;;;;5008464;28;20129;-72
2022/04/09 05:00:15;;;;;;;16.50;4.90;;;;;;;;;;5007191;28;20555;-72
2022/04/09 05:02:41;;;;;;;13.23;5.25;;;;;;;;;;5008890;28;20052;-72
2022/04/09 05:05:06;;;;;;;16.45;5.47;;;;;;;;;;5019514;28;20037;-72
2022/04/09 05:07:38;;;;;;;14.50;5.05;;;;;;;;;;5008405;28;20666;-72
2022/04/09 05:10:06;;;;;;;10.25;5.07;;;;;;;;;;5008068;28;20132;-72
2022/04/09 05:12:33;;;;;;;11.23;4.80;;;;;;;;;;5007760;28;20049;-72
2022/04/09 05:14:58;;;;;;;19.17;5.45;;;;;;;;;;5008222;28;20530;-72
2022/04/09 05:17:23;;;;;;;12.15;4.75;;;;;;;;;;5008481;28;20030;-72
2022/04/09 05:19:49;;;;;;;16.73;5.60;;;;;;;;;;5007981;28;20056;-72
2022/04/09 05:22:14;;;;;;;14.13;5.72;;;;;;;;;;5008153;28;20050;-72
2022/04/09 05:24:39;;;;;;;10.40;5.05;;;;;;;;;;5004336;28;20091;-72
2022/04/09 05:27:05;;;;;;;12.80;5.55;;;;;;;;;;5001959;28;20052;-72
2022/04/09 05:29:30;;;;;;;13.98;4.57;;;;;;;;;;5003495;28;20030;-73
2022/04/09 05:31:55;;;;;;;18.42;5.53;;;;;;;;;;5008495;28;20034;-72
2022/04/09 05:34:21;;;;;;;11.45;4.90;;;;;;;;;;5007598;28;20092;-72
2022/04/09 05:36:46;;;;;;;12.43;5.00;;;;;;;;;;5007616;28;20042;-72
2022/04/09 05:39:11;;;;;;;18.73;6.05;;;;;;;;;;5007734;28;20072;-72
2022/04/09 05:41:37;;;;;;;17.75;5.45;;;;;;;;;;5007602;28;20037;-72
2022/04/09 05:44:02;;;;;;;12.68;5.82;;;;;;;;;;5010281;28;20032;-72
2022/04/09 05:46:27;;;;;;;12.00;4.82;;;;;;;;;;5006325;28;20080;-72
2022/04/09 05:48:53;;;;;;;10.43;5.07;;;;;;;;;;5008641;28;20045;-73
2022/04/09 05:51:18;;;;;;;14.93;5.82;;;;;;;;;;5006471;28;20049;-72
2022/04/09 05:53:43;;;;;;;13.45;5.10;;;;;;;;;;5006805;28;20037;-72
2022/04/09 05:56:09;;;;;;;17.38;5.68;;;;;;;;;;5008026;28;20025;-72
2022/04/09 05:58:36;;;;;;;15.18;5.95;;;;;;;;;;5007296;28;20113;-72
2022/04/09 06:01:02;;;;;;;12.55;5.60;;;;;;;;;;5007398;28;20113;-72
2022/04/09 06:03:27;;;;;;;15.45;5.53;;;;;;;;;;5006874;28;20133;-72
2022/04/09 06:05:52;;;;;;;13.15;5.60;;;;;;;;;;5011629;28;20117;-72
2022/04/09 06:08:18;;;;;;;16.23;5.78;;;;;;;;;;5007545;28;20049;-72
2022/04/09 06:10:43;;;;;;;12.75;5.57;;;;;;;;;;5006862;28;20451;-72
2022/04/09 06:13:10;;;;;;;13.23;5.80;;;;;;;;;;5007306;28;20034;-73
2022/04/09 06:15:35;;;;;;;18.50;6.32;;;;;;;;;;5006540;28;20042;-72
2022/04/09 06:18:05;;;;;;;12.55;5.28;;;;;;;;;;5007498;28;20092;-72
2022/04/09 06:20:30;;;;;;;13.35;5.22;;;;;;;;;;5011525;28;20514;-72
2022/04/09 06:22:56;;;;;;;12.15;5.55;;;;;;;;;;5009785;28;20030;-72
2022/04/09 06:25:21;;;;;;;11.77;5.25;;;;;;;;;;5007184;28;20056;-72
2022/04/09 06:27:46;;;;;;;9.55;4.95;;;;;;;;;;5002675;28;20462;-72
2022/04/09 06:30:13;;;;;;;16.75;5.55;;;;;;;;;;5006897;28;20576;-72
2022/04/09 06:32:39;;;;;;;16.83;6.25;;;;;;;;;;5006796;28;20096;-72
2022/04/09 06:35:05;;;;;;;17.85;7.80;;;;;;;;;;5007823;28;20532;-72
2022/04/09 06:37:30;;;;;;;16.90;7.00;;;;;;;;;;5006258;28;20132;-72
2022/04/09 06:39:56;;;;;;;18.65;7.20;;;;;;;;;;5007457;28;20039;-72
2022/04/09 06:42:21;;;;;;;19.52;5.78;;;;;;;;;;5006502;28;20038;-72
2022/04/09 06:44:47;;;;;;;18.40;6.28;;;;;;;;;;5008085;28;20053;-72
2022/04/09 06:47:12;;;;;;;23.63;6.47;;;;;;;;;;5007190;28;20034;-72
2022/04/09 06:49:38;;;;;;;13.82;5.70;;;;;;;;;;5006459;28;20062;-73
2022/04/09 06:52:04;;;;;;;23.15;6.30;;;;;;;;;;5000746;28;20038;-72
2022/04/09 06:54:29;;;;;;;31.40;7.32;;;;;;;;;;5006640;28;20037;-72
2022/04/09 06:56:54;;;;;;;12.23;4.95;;;;;;;;;;5006673;28;20535;-72
2022/04/09 06:59:20;;;;;;;22.48;6.57;;;;;;;;;;5007651;28;20044;-72
2022/04/09 07:01:45;;;;;;;28.17;7.28;;;;;;;;;;5005910;28;20038;-72
2022/04/09 07:04:10;;;;;;;26.58;6.35;;;;;;;;;;5007623;28;20132;-72
2022/04/09 07:06:35;;;;;;;19.20;7.25;;;;;;;;;;5006692;28;20526;-72
2022/04/09 07:09:01;;;;;;;17.52;6.20;;;;;;;;;;5006118;28;20034;-72
2022/04/09 07:11:27;;;;;;;19.10;6.25;;;;;;;;;;5007104;28;20033;-72
2022/04/09 07:13:52;;;;;;;21.00;7.13;;;;;;;;;;5006829;28;20033;-72
2022/04/09 07:16:17;;;;;;;18.23;6.30;;;;;;;;;;5007904;28;20057;-72
2022/04/09 07:18:44;;;;;;;22.70;7.13;;;;;;;;;;5006220;28;20103;-72
2022/04/09 07:21:09;;;;;;;19.48;6.50;;;;;;;;;;5009494;28;20045;-72
2022/04/09 07:23:34;;;;;;;21.55;7.78;;;;;;;;;;5013315;28;20022;-72
2022/04/09 07:26:00;;;;;;;21.17;6.97;;;;;;;;;;5010936;28;20038;-72
2022/04/09 07:28:25;;;;;;;19.60;7.25;;;;;;;;;;5003074;28;20042;-72
2022/04/09 07:30:50;;;;;;;27.50;7.88;;;;;;;;;;5010173;28;20041;-72
2022/04/09 07:33:16;;;;;;;23.55;7.03;;;;;;;;;;5010739;28;20042;-72
2022/04/09 07:35:41;;;;;;;19.50;7.70;;;;;;;;;;5010277;28;20048;-72
2022/04/09 07:38:07;;;;;;;20.42;7.50;;;;;;;;;;5010633;28;20021;-72
2022/04/09 07:40:33;;;;;;;26.15;7.15;;;;;;;;;;5009420;28;20427;-71
2022/04/09 07:43:00;;;;;;;17.92;7.13;;;;;;;;;;5011847;28;20050;-72
2022/04/09 07:45:26;;;;;;;15.60;5.15;;;;;;;;;;5006444;28;20423;-72
2022/04/09 07:47:54;;;;;;;27.10;8.40;;;;;;;;;;5000836;28;20459;-72
2022/04/09 07:50:20;;;;;;;22.20;7.20;;;;;;;;;;5009336;28;20029;-72
2022/04/09 07:52:45;;;;;;;20.45;5.63;;;;;;;;;;5010053;28;20475;-72
2022/04/09 07:55:14;;;;;;;15.90;5.43;;;;;;;;;;5009257;28;20034;-72
2022/04/09 07:57:40;;;;;;;14.52;5.78;;;;;;;;;;5009917;28;20052;-72
2022/04/09 08:00:06;;;;;;;25.10;7.03;;;;;;;;;;5009625;28;20042;-72
2022/04/09 08:02:33;;;;;;;21.38;5.90;;;;;;;;;;5009314;28;20503;-72
2022/04/09 08:04:58;;;;;;;18.95;6.90;;;;;;;;;;5010143;28;20120;-72
2022/04/09 08:07:23;;;;;;;18.98;6.28;;;;;;;;;;5009645;28;20125;-72
2022/04/09 08:09:49;;;;;;;22.20;5.90;;;;;;;;;;5008952;28;20929;-72
2022/04/09 08:12:15;;;;;;;16.45;6.00;;;;;;;;;;5015565;28;20033;-72
2022/04/09 08:14:44;;;;;;;20.08;6.18;;;;;;;;;;5009008;28;20046;-72
2022/04/09 08:17:09;;;;;;;19.65;6.38;;;;;;;;;;5010007;28;20026;-72
2022/04/09 08:19:35;;;;;;;16.80;6.50;;;;;;;;;;5008854;28;20080;-72
2022/04/09 08:22:05;;;;;;;18.48;5.45;;;;;;;;;;5009428;28;20538;-72
2022/04/09 08:24:30;;;;;;;19.50;5.85;;;;;;;;;;5012915;28;20072;-72
2022/04/09 08:26:56;;;;;;;14.73;5.47;;;;;;;;;;5007081;28;20065;-71
2022/04/09 08:29:23;;;;;;;20.55;6.43;;;;;;;;;;5010747;28;20026;-72
2022/04/09 08:31:48;;;;;;;15.63;5.10;;;;;;;;;;5006515;28;20068;-72
2022/04/09 08:34:14;;;;;;;11.57;4.30;;;;;;;;;;5010279;28;20057;-72
2022/04/09 08:36:39;;;;;;;13.25;5.13;;;;;;;;;;5007729;28;20542;-72
2022/04/09 08:39:05;;;;;;;14.43;5.45;;;;;;;;;;5010084;28;20129;-71
2022/04/09 08:41:31;;;;;;;6.72;3.55;;;;;;;;;;5008124;28;20104;-72
2022/04/09 08:43:56;;;;;;;15.20;5.57;;;;;;;;;;5003600;28;20042;-72
2022/04/09 08:46:25;;;;;;;11.50;4.70;;;;;;;;;;5002381;28;20046;-72
2022/04/09 08:48:50;;;;;;;15.40;5.35;;;;;;;;;;5008818;28;20053;-72
2022/04/09 08:51:16;;;;;;;11.25;4.00;;;;;;;;;;5008692;28;20046;-72
2022/04/09 08:53:43;;;;;;;14.55;5.40;;;;;;;;;;5009051;28;20404;-72
2022/04/09 08:56:10;;;;;;;12.77;5.75;;;;;;;;;;5009015;28;20061;-72
2022/04/09 08:58:36;;;;;;;8.88;3.70;;;;;;;;;;5008561;28;20136;-72
2022/04/09 09:01:01;;;;;;;11.18;4.40;;;;;;;;;;5008313;28;20130;-72
2022/04/09 09:03:27;;;;;;;15.73;5.63;;;;;;;;;;5008118;28;20046;-72
2022/04/09 09:05:52;;;;;;;10.85;5.20;;;;;;;;;;5019029;28;20084;-72
2022/04/09 09:08:38;;;;;;;13.35;4.75;;;;;;;;;;5008809;28;20028;-72
2022/04/09 09:11:03;;;;;;;13.10;5.07;;;;;;;;;;5008226;28;20049;-72
2022/04/09 09:13:29;;;;;;;9.73;4.32;;;;;;;;;;5008381;28;20041;-72
2022/04/09 09:15:55;;;;;;;11.95;4.60;;;;;;;;;;5008113;28;20088;-72
2022/04/09 09:18:28;;;;;;;9.95;3.88;;;;;;;;;;5008445;28;20515;-72
2022/04/09 09:20:56;;;;;;;7.40;3.20;;;;;;;;;;5007859;28;20050;-72
2022/04/09 09:23:24;;;;;;;7.90;2.80;;;;;;;;;;5012733;28;20468;-72
2022/04/09 09:25:54;;;;;;;7.75;3.83;;;;;;;;;;5008146;28;20129;-72
2022/04/09 09:28:25;;;;;;;14.68;4.30;;;;;;;;;;5004309;28;20042;-72
2022/04/09 09:30:50;;;;;;;8.38;3.75;;;;;;;;;;5008223;28;20058;-72
2022/04/09 09:33:16;;;;;;;7.50;4.75;;;;;;;;;;5007677;28;20076;-71
2022/04/09 09:35:59;;;;;;;7.72;3.80;;;;;;;;;;5009055;28;20029;-72
2022/04/09 09:38:29;;;;;;;10.43;5.70;;;;;;;;;;5008667;28;20149;-72
2022/04/09 09:40:59;;;;;;;10.27;3.95;;;;;;;;;;4995680;28;20457;-73
2022/04/09 09:43:25;;;;;;;8.38;3.17;;;;;;;;;;4992256;28;20073;-72
2022/04/09 09:45:53;;;;;;;14.13;5.97;;;;;;;;;;4989539;28;20045;-72
2022/04/09 09:48:28;;;;;;;9.27;5.90;;;;;;;;;;4989060;28;20128;-72
2022/04/09 09:50:56;;;;;;;9.18;5.03;;;;;;;;;;4993039;28;20491;-72
2022/04/09 09:53:36;;;;;;;8.90;4.75;;;;;;;;;;4976667;28;20113;-72
2022/04/09 09:56:02;;;;;;;10.40;5.45;;;;;;;;;;5008921;28;20107;-72
2022/04/09 09:58:29;;;;;;;8.27;4.25;;;;;;;;;;4989503;28;20049;-72
2022/04/09 10:00:58;;;;;;;7.60;3.33;;;;;;;;;;4989393;28;20034;-72
2022/04/09 10:03:27;;;;;;;6.65;3.25;;;;;;;;;;4990254;28;20121;-72
2022/04/09 10:05:53;;;;;;;8.02;3.28;;;;;;;;;;4990094;28;20058;-72
2022/04/09 10:08:20;;;;;;;6.43;2.97;;;;;;;;;;4988546;28;20400;-72
2022/04/09 10:10:48;;;;;;;10.35;3.60;;;;;;;;;;4988606;28;20034;-72
2022/04/09 10:13:20;;;;;;;8.45;3.40;;;;;;;;;;5001365;28;20049;-71
2022/04/09 10:15:50;;;;;;;8.55;3.20;;;;;;;;;;5008540;28;20049;-72
2022/04/09 10:18:19;;;;;;;8.57;3.42;;;;;;;;;;5006546;28;20407;-72
2022/04/09 10:20:45;;;;;;;4.03;2.47;;;;;;;;;;5006749;28;20026;-72
2022/04/09 10:23:13;;;;;;;5.20;2.97;;;;;;;;;;5011501;28;20045;-72
2022/04/09 10:25:41;;;;;;;9.10;3.58;;;;;;;;;;5007659;28;20125;-72
2022/04/09 10:28:08;;;;;;;8.02;4.18;;;;;;;;;;5002845;28;20046;-72
2022/04/09 10:30:41;;;;;;;8.57;4.38;;;;;;;;;;5007453;28;20735;-72
2022/04/09 10:33:26;;;;;;;6.93;3.65;;;;;;;;;;5006748;28;20052;-72
2022/04/09 10:35:51;;;;;;;11.05;3.60;;;;;;;;;;5000592;28;20046;-72
2022/04/09 10:38:22;;;;;;;7.90;3.72;;;;;;;;;;4997392;28;20036;-72
2022/04/09 10:40:50;;;;;;;8.77;4.30;;;;;;;;;;5007122;28;20073;-72
2022/04/09 10:43:21;;;;;;;7.60;3.63;;;;;;;;;;5007408;28;20045;-72
2022/04/09 10:46:02;;;;;;;11.90;4.25;;;;;;;;;;5007455;28;20046;-71
2022/04/09 10:48:31;;;;;;;7.65;3.70;;;;;;;;;;5007011;28;20072;-72
2022/04/09 10:51:04;;;;;;;5.93;3.30;;;;;;;;;;5007737;28;20049;-72
2022/04/09 10:53:31;;;;;;;5.38;3.30;;;;;;;;;;5006694;28;20489;-71
2022/04/09 10:56:32;;;;;;;7.65;3.60;;;;;;;;;;5009985;28;20103;-72
2022/04/09 10:59:04;;;;;;;4.22;3.20;;;;;;;;;;5010339;28;20073;-71
2022/04/09 11:01:48;;;;;;;4.40;2.67;;;;;;;;;;4994835;28;20057;-72
2022/04/09 11:04:32;;;;;;;9.48;3.88;;;;;;;;;;4984642;28;20038;-71
2022/04/09 11:07:18;;;;;;;10.00;4.25;;;;;;;;;;4992596;28;20393;-72
2022/04/09 11:09:56;;;;;;;7.30;3.85;;;;;;;;;;4989903;28;20039;-72
2022/04/09 11:12:37;;;;;;;7.63;3.90;;;;;;;;;;4974343;28;20070;-72
2022/04/09 11:15:04;;;;;;;6.90;3.90;;;;;;;;;;4989852;28;20038;-72
2022/04/09 11:17:36;;;;;;;5.15;3.40;;;;;;;;;;4992339;28;20447;-72
2022/04/09 11:20:06;;;;;;;6.15;3.50;;;;;;;;;;4990074;28;20041;-72
2022/04/09 11:22:37;;;;;;;9.63;4.75;;;;;;;;;;4992492;28;20040;-72
2022/04/09 11:25:07;;;;;;;12.00;3.80;;;;;;;;;;4986671;28;20105;-72
2022/04/09 11:27:33;;;;;;;7.70;4.40;;;;;;;;;;4983385;28;20047;-72
2022/04/09 11:29:59;;;;;;;7.72;2.97;;;;;;;;;;4989441;28;20100;-72
2022/04/09 11:32:26;;;;;;;8.30;3.75;;;;;;;;;;4990572;28;20484;-72
2022/04/09 11:35:00;;;;;;;8.38;3.95;;;;;;;;;;5009161;28;20053;-72
2022/04/09 11:37:32;;;;;;;6.20;3.10;;;;;;;;;;5011408;28;20041;-72
2022/04/09 11:40:04;;;;;;;5.28;3.65;;;;;;;;;;5009449;28;20128;-72
2022/04/09 11:42:48;;;;;;;6.05;3.17;;;;;;;;;;5004157;28;20547;-73
2022/04/09 11:45:16;;;;;;;;;;;;;;;;;;4990458;28;20050;-72
2022/04/09 11:47:42;;;;;;;6.65;3.97;;;;;;;;;;4991717;28;19967;-72
2022/04/09 11:50:12;;;;;;;11.15;5.30;;;;;;;;;;4990546;28;20030;-72
2022/04/09 11:52:37;;;;;;;11.02;5.40;;;;;;;;;;5009165;28;20461;-72
2022/04/09 11:55:08;;;;;;;10.80;5.60;;;;;;;;;;5009038;28;20812;-72
2022/04/09 11:57:33;;;;;;;9.02;3.63;;;;;;;;;;5010751;28;20045;-73
2022/04/09 12:00:00;;;;;;;9.77;4.32;;;;;;;;;;5000828;28;20053;-72
2022/04/09 12:02:27;;;;;;;8.93;4.88;;;;;;;;;;5010451;28;20088;-72
2022/04/09 12:04:56;;;;;;;11.98;5.57;;;;;;;;;;5009197;28;20410;-72
2022/04/09 12:07:24;;;;;;;10.68;5.65;;;;;;;;;;5010638;28;20069;-72
2022/04/09 12:09:50;;;;;;;8.95;5.63;;;;;;;;;;5008661;28;20512;-72
2022/04/09 12:12:18;;;;;;;11.68;6.15;;;;;;;;;;5010709;28;20037;-73
2022/04/09 12:14:54;;;;;;;12.95;6.65;;;;;;;;;;5009601;28;20022;-72
2022/04/09 12:17:22;;;;;;;11.13;5.82;;;;;;;;;;5011198;28;20026;-72
2022/04/09 12:19:48;;;;;;;11.88;6.07;;;;;;;;;;5009340;28;20700;-73
2022/04/09 12:22:19;;;;;;;7.28;4.00;;;;;;;;;;5009495;28;20416;-72
2022/04/09 12:24:56;;;;;;;4.60;3.10;;;;;;;;;;5013005;28;20034;-72
2022/04/09 12:27:45;;;;;;;6.65;3.35;;;;;;;;;;5009543;28;20451;-73
2022/04/09 12:30:12;;;;;;;6.85;4.00;;;;;;;;;;5017668;28;20045;-72
2022/04/09 12:32:39;;;;;;;6.13;4.05;;;;;;;;;;5010021;28;20044;-72
2022/04/09 12:35:06;;;;;;;6.70;3.55;;;;;;;;;;5009908;28;20026;-73
2022/04/09 12:37:50;;;;;;;6.32;3.85;;;;;;;;;;5009545;28;20041;-73
2022/04/09 12:40:18;;;;;;;6.85;3.60;;;;;;;;;;4993436;28;20042;-73
2022/04/09 12:42:43;;;;;;;9.20;4.68;;;;;;;;;;5011419;28;20069;-73
2022/04/09 12:45:11;;;;;;;7.30;3.90;;;;;;;;;;5009062;28;20148;-73
2022/04/09 12:47:37;;;;;;;6.88;3.50;;;;;;;;;;5009165;28;20038;-72
2022/04/09 12:50:02;;;;;;;8.77;3.50;;;;;;;;;;5009348;28;20018;-73
2022/04/09 12:52:30;;;;;;;8.73;3.25;;;;;;;;;;5008594;28;20044;-73
2022/04/09 12:54:56;;;;;;;7.22;4.07;;;;;;;;;;4998459;28;20034;-73
2022/04/09 12:57:21;;;;;;;6.63;3.65;;;;;;;;;;5007487;28;20048;-73
2022/04/09 12:59:47;;;;;;;6.00;3.05;;;;;;;;;;5010000;28;20060;-73
2022/04/09 13:02:13;;;;;;;4.75;3.15;;;;;;;;;;5007415;28;20687;-72
2022/04/09 13:04:38;;;;;;;8.63;4.30;;;;;;;;;;5016764;28;20059;-72
2022/04/09 13:07:04;;;;;;;5.47;3.78;;;;;;;;;;5011831;28;20411;-73
2022/04/09 13:09:29;;;;;;;5.43;2.88;;;;;;;;;;5009484;28;20448;-73
2022/04/09 13:11:54;;;;;;;5.63;3.05;;;;;;;;;;5008026;28;20093;-73
2022/04/09 13:14:20;;;;;;;4.60;2.92;;;;;;;;;;5010337;28;20036;-72
2022/04/09 13:16:45;;;;;;;6.25;2.80;;;;;;;;;;5007984;28;20042;-73
2022/04/09 13:19:11;;;;;;;3.72;2.92;;;;;;;;;;5009131;28;20466;-73
2022/04/09 13:21:36;;;;;;;4.60;3.00;;;;;;;;;;5007480;28;20495;-73
2022/04/09 13:24:04;;;;;;;6.55;3.45;;;;;;;;;;5013534;28;20045;-73
2022/04/09 13:26:29;;;;;;;4.72;3.17;;;;;;;;;;4995199;28;20048;-73
2022/04/09 13:28:55;;;;;;;5.30;3.22;;;;;;;;;;5000400;28;20399;-73
2022/04/09 13:31:20;;;;;;;4.35;3.08;;;;;;;;;;5007360;28;20053;-73
2022/04/09 13:33:46;;;;;;;4.72;3.55;;;;;;;;;;5009241;28;20042;-73
2022/04/09 13:36:11;;;;;;;6.38;2.60;;;;;;;;;;5007811;28;20568;-73
2022/04/09 13:38:37;;;;;;;4.05;2.45;;;;;;;;;;5009426;28;20084;-73
2022/04/09 13:41:02;;;;;;;6.78;3.17;;;;;;;;;;5009688;28;20033;-73
2022/04/09 13:43:27;;;;;;;4.22;2.90;;;;;;;;;;5009570;28;20053;-73
2022/04/09 13:45:53;;;;;;;5.60;3.53;;;;;;;;;;5009562;28;20037;-73
2022/04/09 13:48:19;;;;;;;7.32;3.83;;;;;;;;;;5005713;28;20037;-73
2022/04/09 13:50:45;;;;;;;5.95;3.53;;;;;;;;;;5009279;28;20029;-72
2022/04/09 13:53:10;;;;;;;6.60;3.60;;;;;;;;;;5007713;28;20041;-73
2022/04/09 13:55:35;;;;;;;6.35;3.75;;;;;;;;;;5008903;28;20041;-73
2022/04/09 13:58:01;;;;;;;5.85;3.60;;;;;;;;;;5007070;28;20042;-73
2022/04/09 14:00:27;;;;;;;7.82;3.65;;;;;;;;;;5008465;28;20451;-72
2022/04/09 14:02:52;;;;;;;4.35;3.20;;;;;;;;;;5006069;28;20518;-73
2022/04/09 14:05:19;;;;;;;6.20;3.65;;;;;;;;;;5021603;28;20156;-73
2022/04/09 14:07:44;;;;;;;7.22;3.45;;;;;;;;;;5016058;28;20062;-72
2022/04/09 14:10:09;;;;;;;6.32;3.33;;;;;;;;;;5008817;28;20151;-73
2022/04/09 14:12:35;;;;;;;7.43;3.97;;;;;;;;;;5006750;28;20096;-72
2022/04/09 14:15:01;;;;;;;5.10;2.40;;;;;;;;;;5008544;28;20038;-73
2022/04/09 14:17:26;;;;;;;5.03;2.40;;;;;;;;;;5007050;28;20475;-73
2022/04/09 14:19:52;;;;;;;2.67;2.17;;;;;;;;;;5008989;28;20033;-73
2022/04/09 14:22:17;;;;;;;2.92;1.95;;;;;;;;;;4996650;28;20038;-73
2022/04/09 14:24:42;;;;;;;3.70;1.80;;;;;;;;;;5012441;28;20049;-72
2022/04/09 14:27:08;;;;;;;4.55;1.77;;;;;;;;;;5003236;28;20042;-72
2022/04/09 14:29:34;;;;;;;3.10;2.05;;;;;;;;;;5007590;28;20034;-72
2022/04/09 14:32:00;;;;;;;1.70;1.10;;;;;;;;;;5009263;28;20021;-73
2022/04/09 14:34:25;;;;;;;4.13;2.10;;;;;;;;;;5006165;28;20420;-72